Time;durP1;ratioP1;P1;durP2;ratioP2;P2;SDS_P1;SDS_P2;PMS_P1;PMS_P2;Temp;Humidity;BMP_temperature;BMP_pressure;BME280_temperature;BME280_humidity;BME280_pressure;Samples;Min_cycle;Max_cycle;Signal;HPM_P1;HPM_P2
2022/02/03 00:06:49;;;;;;;6.07;1.30;;;8.50;69.20;;;;;;20700006;28;20057;-80
2022/02/03 00:17:04;;;;;;;6.93;0.90;;;8.50;69.20;;;;;;20698701;28;20355;-81
2022/02/03 00:27:13;;;;;;;4.72;1.10;;;8.50;69.20;;;;;;20715259;28;20026;-81
2022/02/03 00:37:29;;;;;;;5.90;1.35;;;8.50;69.20;;;;;;20713564;28;20034;-81
2022/02/03 00:57:53;;;;;;;2.35;1.13;;;8.50;69.20;;;;;;20733693;28;20041;-81
2022/02/03 01:07:53;;;;;;;1.33;0.82;;;8.60;69.30;;;;;;20708344;28;20131;-79
2022/02/03 01:18:36;;;;;;;1.55;1.00;;;8.50;69.20;;;;;;20742618;28;20029;-79
2022/02/03 01:49:13;;;;;;;2.90;0.70;;;8.50;69.20;;;;;;20805028;28;20463;-81
2022/02/03 01:59:21;;;;;;;2.67;0.80;;;8.50;69.10;;;;;;20803290;28;20037;-80
2022/02/03 02:10:04;;;;;;;1.05;0.93;;;8.50;69.10;;;;;;20800634;28;20223;-80
2022/02/03 02:51:00;;;;;;;2.33;1.08;;;8.50;69.20;;;;;;20798228;28;20033;-81
2022/02/03 03:32:33;;;;;;;3.25;0.63;;;8.50;69.20;;;;;;20794826;28;20025;-81
2022/02/03 03:42:38;;;;;;;4.40;0.77;;;8.50;69.30;;;;;;20795674;28;20034;-79
2022/02/03 03:52:59;;;;;;;3.60;1.13;;;8.50;69.30;;;;;;20794545;28;20041;-80
2022/02/03 05:06:37;;;;;;;5.30;1.20;;;8.50;69.60;;;;;;20749249;28;20057;-79
2022/02/03 05:48:56;;;;;;;1.25;0.55;;;8.90;68.80;;;;;;20766491;28;20030;-87
2022/02/03 06:09:28;;;;;;;3.05;0.60;;;9.30;67.60;;;;;;20803221;28;20041;-78
2022/02/03 06:29:55;;;;;;;1.55;0.73;;;9.50;67.00;;;;;;20845503;28;20030;-78
2022/02/03 06:39:57;;;;;;;5.93;1.00;;;9.40;67.10;;;;;;20744181;28;20030;-73
2022/02/03 06:50:04;;;;;;;3.13;1.00;;;9.20;67.40;;;;;;20696334;28;20041;-75
2022/02/03 07:00:10;;;;;;;1.40;0.70;;;9.10;67.90;;;;;;20728385;28;20065;-75
2022/02/03 07:10:11;;;;;;;1.85;0.77;;;9.00;68.20;;;;;;20793080;28;20389;-76
2022/02/03 07:20:13;;;;;;;2.65;0.93;;;8.90;68.60;;;;;;20796516;28;20044;-74
2022/02/03 07:30:14;;;;;;;3.35;0.90;;;8.80;68.80;;;;;;20739217;28;20164;-75
2022/02/03 07:40:15;;;;;;;6.80;1.02;;;8.80;69.10;;;;;;20835083;28;20068;-73
2022/02/03 07:50:17;;;;;;;2.60;0.80;;;8.70;69.20;;;;;;20853584;28;20530;-75
2022/02/03 08:00:18;;;;;;;1.80;0.90;;;8.70;69.40;;;;;;20820960;28;20037;-73
2022/02/03 08:10:42;;;;;;;2.60;0.93;;;8.70;69.60;;;;;;20801316;28;20037;-74
2022/02/03 08:20:59;;;;;;;3.75;1.42;;;8.70;69.80;;;;;;20760125;28;20074;-76
2022/02/03 08:31:02;;;;;;;1.13;0.70;;;8.60;69.90;;;;;;20791885;28;20052;-74
2022/02/03 08:41:03;;;;;;;3.72;1.35;;;8.60;70.00;;;;;;20812302;28;20046;-74
2022/02/03 08:51:06;;;;;;;4.50;1.60;;;8.60;70.20;;;;;;20738810;28;20052;-74
2022/02/03 10:03:30;;;;;;;2.40;1.05;;;8.60;71.60;;;;;;20793131;28;20476;-78
2022/02/03 10:13:30;;;;;;;3.00;1.63;;;8.60;71.80;;;;;;20820209;28;20045;-80
2022/02/03 10:23:34;;;;;;;2.72;1.15;;;8.60;72.10;;;;;;20789404;28;20046;-80
2022/02/03 10:33:41;;;;;;;4.38;1.35;;;8.60;72.30;;;;;;20786081;28;20030;-81
2022/02/03 10:44:28;;;;;;;2.75;1.55;;;8.60;72.50;;;;;;20868042;28;20049;-78
2022/02/03 10:55:02;;;;;;;2.17;1.17;;;8.60;72.90;;;;;;20818474;28;20048;-81
2022/02/03 11:05:28;;;;;;;2.22;1.30;;;8.60;73.10;;;;;;20821570;28;20069;-78
2022/02/03 11:15:32;;;;;;;3.28;1.60;;;8.70;73.40;;;;;;20816601;28;20083;-78
2022/02/03 11:26:26;;;;;;;3.03;1.42;;;8.60;73.50;;;;;;20719701;28;20062;-77
2022/02/03 11:47:00;;;;;;;2.08;1.00;;;8.90;73.50;;;;;;20782122;28;20382;-74
2022/02/03 12:07:45;;;;;;;5.68;1.98;;;9.50;72.40;;;;;;20919553;28;20029;-70
2022/02/03 12:28:28;;;;;;;3.70;1.92;;;10.00;71.60;;;;;;20889267;28;20127;-70
2022/02/03 12:38:35;;;;;;;12.13;1.92;;;10.10;71.50;;;;;;20959424;28;20036;-71
2022/02/03 12:48:36;;;;;;;4.00;2.60;;;9.90;71.80;;;;;;20954043;28;20044;-71
2022/02/03 12:58:43;;;;;;;6.50;3.47;;;9.70;72.20;;;;;;20950367;28;20049;-70
2022/02/03 13:08:46;;;;;;;7.37;3.93;;;9.50;72.90;;;;;;20911124;28;20143;-70
2022/02/03 13:19:29;;;;;;;5.20;3.25;;;9.40;73.50;;;;;;20916902;28;20028;-70
2022/02/03 13:29:54;;;;;;;7.25;4.63;;;9.30;74.30;;;;;;20987343;28;20048;-70
2022/02/03 13:39:47;;;;;;;9.57;4.47;;;9.20;74.70;;;;;;20972576;28;20052;-73
2022/02/03 13:50:03;;;;;;;8.25;5.47;;;9.10;75.10;;;;;;20946126;28;20032;-71
2022/02/03 14:11:34;;;;;;;12.25;4.82;;;9.10;75.50;;;;;;20900203;28;20112;-75
2022/02/03 14:21:09;;;;;;;8.70;4.55;;;9.10;75.60;;;;;;20957197;28;20047;-75
2022/02/03 14:31:10;;;;;;;7.25;4.93;;;9.00;75.70;;;;;;20933065;28;20045;-76
2022/02/03 14:41:22;;;;;;;7.28;4.20;;;9.00;75.70;;;;;;20879758;28;20434;-76
2022/02/03 14:51:26;;;;;;;7.93;4.15;;;9.00;75.80;;;;;;20869770;28;20140;-74
2022/02/03 15:01:27;;;;;;;7.05;4.13;;;9.00;75.70;;;;;;20922956;28;20032;-76
2022/02/03 15:11:43;;;;;;;8.57;3.80;;;9.00;75.80;;;;;;20972756;28;20032;-76
2022/02/03 15:21:44;;;;;;;5.32;3.67;;;9.00;75.90;;;;;;20916343;28;20372;-76
2022/02/03 15:31:44;;;;;;;6.50;3.60;;;9.00;75.80;;;;;;20913260;28;20020;-77
2022/02/03 15:41:47;;;;;;;7.70;4.43;;;9.00;75.80;;;;;;20900462;28;20032;-78
2022/02/03 16:22:24;;;;;;;6.65;3.28;;;9.00;75.80;;;;;;21003869;28;20037;-77
2022/02/03 16:53:03;;;;;;;4.57;2.83;;;9.00;75.60;;;;;;21010380;28;20041;-74
2022/02/03 17:03:04;;;;;;;4.13;2.33;;;9.10;75.50;;;;;;20948548;28;20144;-74
2022/02/03 17:13:04;;;;;;;5.35;2.38;;;9.00;75.50;;;;;;20879124;28;20373;-75
2022/02/03 17:23:07;;;;;;;4.93;2.45;;;9.10;75.50;;;;;;20902311;28;20041;-75
2022/02/03 18:35:16;;;;;;;5.15;2.17;;;9.00;75.00;;;;;;20974164;28;20025;-74
2022/02/03 19:16:15;;;;;;;5.25;2.72;;;9.00;74.90;;;;;;20976450;28;20040;-76
2022/02/03 19:26:52;;;;;;;4.57;2.15;;;9.00;74.90;;;;;;20948068;28;20155;-74
2022/02/03 20:07:47;;;;;;;4.90;2.67;;;8.90;74.70;;;;;;20954038;28;20029;-74
2022/02/03 20:17:48;;;;;;;5.72;2.85;;;8.90;74.70;;;;;;20871337;28;20059;-74
2022/02/03 20:27:48;;;;;;;3.63;2.20;;;8.90;74.70;;;;;;20879139;28;20071;-75
2022/02/03 20:37:49;;;;;;;4.68;2.67;;;8.90;74.70;;;;;;20869710;28;20769;-74
2022/02/03 20:47:50;;;;;;;6.05;2.90;;;8.90;74.60;;;;;;20979540;28;20135;-74
2022/02/03 20:57:50;;;;;;;4.10;2.30;;;8.90;74.60;;;;;;20928095;28;20085;-74
2022/02/03 21:07:52;;;;;;;4.75;2.20;;;8.90;74.60;;;;;;21069911;28;20028;-74
2022/02/03 21:17:53;;;;;;;4.43;2.05;;;8.90;74.60;;;;;;20978846;28;20135;-74
2022/02/03 21:27:56;;;;;;;3.80;2.20;;;8.90;74.60;;;;;;20966683;28;20433;-75
2022/02/03 21:37:56;;;;;;;4.18;2.25;;;8.90;74.60;;;;;;20950571;28;20505;-74
2022/02/03 21:47:58;;;;;;;4.15;2.28;;;8.90;74.60;;;;;;21005885;28;20086;-74
2022/02/03 21:57:59;;;;;;;5.22;2.60;;;8.90;74.50;;;;;;21017034;28;20489;-74
2022/02/03 22:07:59;;;;;;;5.07;2.33;;;8.90;74.50;;;;;;20947794;28;20024;-75
2022/02/03 22:18:00;;;;;;;3.67;2.13;;;8.90;74.50;;;;;;21072097;28;20106;-74
2022/02/03 22:48:32;;;;;;;2.97;2.10;;;8.90;74.40;;;;;;21045050;28;20397;-74
2022/02/03 23:09:54;;;;;;;4.88;2.47;;;8.90;74.40;;;;;;20898043;28;20047;-75
2022/02/03 23:19:45;;;;;;;2.97;2.45;;;8.90;74.40;;;;;;21051248;28;20051;-74
2022/02/03 23:29:46;;;;;;;4.07;2.38;;;8.90;74.40;;;;;;20996151;28;20043;-75
2022/02/03 23:39:58;;;;;;;2.78;2.03;;;8.90;74.40;;;;;;20963416;28;20062;-74
2022/02/03 23:50:27;;;;;;;3.75;2.63;;;8.90;74.40;;;;;;21025409;28;20032;-74
